createdAt,value
2023-04-24T00:00:18.638Z,1.25
2023-04-24T00:01:22.504Z,2.00
2023-04-24T00:02:24.175Z,1.00
2023-04-24T00:03:27.171Z,3.50
2023-04-24T00:04:28.854Z,1.50
2023-04-24T00:05:31.384Z,2.00
2023-04-24T00:06:34.238Z,1.00
2023-04-24T00:07:36.739Z,1.25
2023-04-24T00:08:38.189Z,1.00
2023-04-24T00:09:40.961Z,2.00
2023-04-24T00:10:42.660Z,1.00
2023-04-24T00:11:45.434Z,1.00
2023-04-24T00:12:46.858Z,2.00
2023-04-24T00:13:49.316Z,2.00
2023-04-24T00:14:50.911Z,1.75
2023-04-24T00:15:53.324Z,1.00
2023-04-24T00:16:56.168Z,2.00
2023-04-24T00:17:58.767Z,2.00
2023-04-24T00:19:01.770Z,2.00
2023-04-24T00:20:05.577Z,1.00
2023-04-24T00:21:07.003Z,1.00
2023-04-24T00:22:09.467Z,2.00
2023-04-24T00:23:11.854Z,2.00
2023-04-24T00:24:13.475Z,1.50
2023-04-24T00:25:15.872Z,1.00
2023-04-24T00:26:17.373Z,2.00
2023-04-24T00:27:19.833Z,3.00
2023-04-24T00:28:21.269Z,2.00
2023-04-24T00:29:23.681Z,1.75
2023-04-24T00:30:25.140Z,2.00
2023-04-24T00:31:27.554Z,2.00
2023-04-24T00:32:30.451Z,2.50
2023-04-24T00:33:32.843Z,2.00
2023-04-24T00:34:34.309Z,2.00
2023-04-24T00:35:36.731Z,1.75
2023-04-24T00:36:38.189Z,2.00
2023-04-24T00:37:40.760Z,2.00
2023-04-24T00:38:42.210Z,1.25
2023-04-24T00:39:44.988Z,2.00
2023-04-24T00:40:46.684Z,2.00
2023-04-24T00:41:49.296Z,1.25
2023-04-24T00:42:50.976Z,1.75
2023-04-24T00:43:53.614Z,4.00
2023-04-24T00:44:55.152Z,2.00
2023-04-24T00:45:57.633Z,2.00
2023-04-24T00:46:59.074Z,1.00
2023-04-24T00:48:03.267Z,1.00
2023-04-24T00:49:05.047Z,2.00
2023-04-24T00:50:08.100Z,1.50
2023-04-24T00:51:09.560Z,2.00
2023-04-24T00:52:13.479Z,1.00
2023-04-24T00:53:15.117Z,1.00
2023-04-24T00:54:17.551Z,1.50
2023-04-24T00:55:20.044Z,1.00
2023-04-24T00:56:21.448Z,1.75
2023-04-24T00:57:24.677Z,1.25
2023-04-24T00:58:26.203Z,2.00
2023-04-24T00:59:28.604Z,2.50
2023-04-24T01:00:30.024Z,1.00
2023-04-24T01:01:33.691Z,2.00
2023-04-24T01:02:35.678Z,1.00
2023-04-24T01:03:39.849Z,2.00
2023-04-24T01:04:41.548Z,1.00
2023-04-24T01:05:44.085Z,2.00
2023-04-24T01:06:45.953Z,1.00
2023-04-24T01:07:49.952Z,1.25
2023-04-24T01:08:51.669Z,1.50
2023-04-24T01:09:54.053Z,1.00
2023-04-24T01:10:55.557Z,1.50
2023-04-24T01:11:57.984Z,1.00
2023-04-24T01:12:59.416Z,1.00
2023-04-24T01:14:01.985Z,2.00
2023-04-24T01:15:04.781Z,1.00
2023-04-24T01:16:07.314Z,1.00
2023-04-24T01:17:10.112Z,1.75
2023-04-24T01:18:12.502Z,1.50
2023-04-24T01:19:15.585Z,1.50
2023-04-24T01:20:18.002Z,1.00
2023-04-24T01:21:19.455Z,1.00
2023-04-24T01:22:23.210Z,2.00
2023-04-24T01:23:24.617Z,2.00
2023-04-24T01:24:27.125Z,1.00
2023-04-24T01:25:29.536Z,1.25
2023-04-24T01:26:30.945Z,1.75
2023-04-24T01:27:33.366Z,1.00
2023-04-24T01:28:34.773Z,2.00
2023-04-24T01:29:37.400Z,2.50
2023-04-24T01:30:40.016Z,2.00
2023-04-24T01:31:42.561Z,1.25
2023-04-24T01:32:45.316Z,1.75
2023-04-24T01:33:47.838Z,1.25
2023-04-24T01:34:49.327Z,2.50
2023-04-24T01:35:51.743Z,3.00
2023-04-24T01:36:53.155Z,2.00
2023-04-24T01:37:56.924Z,2.00
2023-04-24T01:38:58.338Z,1.50
2023-04-24T01:40:01.004Z,1.50
2023-04-24T01:41:02.481Z,1.00
2023-04-24T01:42:04.912Z,1.75
2023-04-24T01:43:06.329Z,2.00
2023-04-24T01:44:08.743Z,2.00
2023-04-24T01:45:11.404Z,1.00
2023-04-24T01:46:13.849Z,1.00
2023-04-24T01:47:15.268Z,1.25
2023-04-24T01:48:17.676Z,1.00
2023-04-24T01:49:19.219Z,1.25
2023-04-24T01:50:21.875Z,1.00
2023-04-24T01:51:23.283Z,1.00
2023-04-24T01:52:25.671Z,1.00
2023-04-24T01:53:28.423Z,1.75
2023-04-24T01:54:30.807Z,1.25
2023-04-24T01:55:32.423Z,1.75
2023-04-24T01:56:35.784Z,1.50
2023-04-24T01:57:37.206Z,1.00
2023-04-24T01:58:39.596Z,1.00
2023-04-24T01:59:41.127Z,1.00
2023-04-24T02:00:43.797Z,1.50
2023-04-24T02:01:45.338Z,1.00
2023-04-24T02:02:48.499Z,2.00
2023-04-24T02:03:50.476Z,1.00
2023-04-24T02:04:52.949Z,1.00
2023-04-24T02:05:54.394Z,1.75
2023-04-24T02:06:56.819Z,2.00
2023-04-24T02:07:58.245Z,2.00
2023-04-24T02:09:02.072Z,2.00
2023-04-24T02:10:04.141Z,1.50
2023-04-24T02:11:07.041Z,1.00
2023-04-24T02:12:08.478Z,4.00
2023-04-24T02:13:11.086Z,2.00
2023-04-24T02:14:12.548Z,2.00
2023-04-24T02:15:14.955Z,2.00
2023-04-24T02:16:16.492Z,2.00
2023-04-24T02:17:20.026Z,2.00
2023-04-24T02:18:21.611Z,1.75
2023-04-24T02:19:24.034Z,1.00
2023-04-24T02:20:25.554Z,4.00
2023-04-24T02:21:28.424Z,2.00
2023-04-24T02:22:29.880Z,2.00
2023-04-24T02:23:32.335Z,1.00
2023-04-24T02:24:36.135Z,2.00
2023-04-24T02:25:37.555Z,2.00
2023-04-24T02:26:40.012Z,2.00
2023-04-24T02:27:41.445Z,4.00
2023-04-24T02:28:43.879Z,1.00
2023-04-24T02:29:46.058Z,1.50
2023-04-24T02:30:48.536Z,1.25
2023-04-24T02:31:50.083Z,2.00
2023-04-24T02:32:52.566Z,3.75
2023-04-24T02:33:54.017Z,1.25
2023-04-24T02:34:56.434Z,2.00
2023-04-24T02:35:57.838Z,2.00
2023-04-24T02:37:00.483Z,1.50
2023-04-24T02:38:01.907Z,2.25
2023-04-24T02:39:04.689Z,3.50
2023-04-24T02:40:08.756Z,2.00
2023-04-24T02:41:11.156Z,1.50
2023-04-24T02:42:12.649Z,2.00
2023-04-24T02:43:15.048Z,1.00
2023-04-24T02:44:18.146Z,4.00
2023-04-24T02:45:20.537Z,3.00
2023-04-24T02:46:22.044Z,2.00
2023-04-24T02:47:24.640Z,3.50
2023-04-24T02:48:26.097Z,2.00
2023-04-24T02:49:28.472Z,2.00
2023-04-24T02:50:29.914Z,3.00
2023-04-24T02:51:32.467Z,4.00
2023-04-24T02:52:33.978Z,2.75
2023-04-24T02:53:36.352Z,4.00
2023-04-24T02:54:37.784Z,2.75
2023-04-24T02:55:41.517Z,2.75
2023-04-24T02:56:42.943Z,2.75
2023-04-24T02:57:45.361Z,3.50
2023-04-24T02:58:46.787Z,2.75
2023-04-24T02:59:49.169Z,2.75
2023-04-24T03:00:53.737Z,3.25
2023-04-24T03:01:56.212Z,4.00
2023-04-24T03:02:57.915Z,3.25
2023-04-24T03:04:00.669Z,4.00
2023-04-24T03:05:03.260Z,3.50
2023-04-24T03:06:06.706Z,4.00
2023-04-24T03:07:08.147Z,2.75
2023-04-24T03:08:11.444Z,2.75
2023-04-24T03:09:12.868Z,4.00
2023-04-24T03:10:15.312Z,3.00
2023-04-24T03:11:18.074Z,4.00
2023-04-24T03:12:20.524Z,4.00
2023-04-24T03:13:22.024Z,4.00
2023-04-24T03:14:24.422Z,4.00
2023-04-24T03:15:25.846Z,5.50
2023-04-24T03:16:28.263Z,6.75
2023-04-24T03:17:29.854Z,5.50
2023-04-24T03:18:32.325Z,4.00
2023-04-24T03:19:33.743Z,3.50
2023-04-24T03:20:37.903Z,4.50
2023-04-24T03:21:41.544Z,6.00
2023-04-24T03:22:43.939Z,4.00
2023-04-24T03:23:45.404Z,4.00
2023-04-24T03:24:47.817Z,6.00
2023-04-24T03:25:49.507Z,8.50
2023-04-24T03:26:53.279Z,6.00
2023-04-24T03:27:55.702Z,6.00
2023-04-24T03:28:58.143Z,3.75
2023-04-24T03:29:59.565Z,3.75
2023-04-24T03:31:01.985Z,4.00
2023-04-24T03:32:03.483Z,4.25
2023-04-24T03:33:05.875Z,5.50
2023-04-24T03:34:07.352Z,6.25
2023-04-24T03:35:10.315Z,5.50
2023-04-24T03:36:12.731Z,4.50
2023-04-24T03:37:14.156Z,4.50
2023-04-24T03:38:16.575Z,6.00
2023-04-24T03:39:18.048Z,5.75
2023-04-24T03:40:20.487Z,6.50
2023-04-24T03:41:23.006Z,6.25
2023-04-24T03:42:26.829Z,7.00
2023-04-24T03:43:28.384Z,4.50
2023-04-24T03:44:30.820Z,7.00
2023-04-24T03:45:32.227Z,8.00
2023-04-24T03:46:34.774Z,5.00
2023-04-24T03:47:36.310Z,6.75
2023-04-24T03:48:38.702Z,9.00
2023-04-24T03:49:40.220Z,6.75
2023-04-24T03:50:42.697Z,8.75
2023-04-24T03:51:44.169Z,9.00
2023-04-24T03:52:46.561Z,8.00
2023-04-24T03:53:47.973Z,9.00
2023-04-24T03:54:50.417Z,7.00
2023-04-24T03:55:51.855Z,12.00
2023-04-24T03:56:54.259Z,9.00
2023-04-24T03:57:57.048Z,8.50
2023-04-24T03:58:59.446Z,7.00
2023-04-24T04:00:01.132Z,12.50
2023-04-24T04:01:03.758Z,12.25
2023-04-24T04:02:05.545Z,9.75
2023-04-24T04:03:08.243Z,9.25
2023-04-24T04:04:10.158Z,9.25
2023-04-24T04:05:12.718Z,9.50
2023-04-24T04:06:14.372Z,12.00
2023-04-24T04:07:16.774Z,13.00
2023-04-24T04:08:18.199Z,9.00
2023-04-24T04:09:20.608Z,10.75
2023-04-24T04:10:22.194Z,15.00
2023-04-24T04:11:24.642Z,11.25
2023-04-24T04:12:26.066Z,10.25
2023-04-24T04:13:29.835Z,9.00
2023-04-24T04:14:31.254Z,12.50
2023-04-24T04:15:33.726Z,13.00
2023-04-24T04:16:37.174Z,13.75
2023-04-24T04:17:39.971Z,14.50
2023-04-24T04:18:41.410Z,14.00
2023-04-24T04:19:44.043Z,13.50
2023-04-24T04:20:45.682Z,14.00
2023-04-24T04:21:53.048Z,10.75
2023-04-24T04:22:54.454Z,12.00
2023-04-24T04:23:57.680Z,13.00
2023-04-24T04:25:00.386Z,12.00
2023-04-24T04:26:02.265Z,14.00
2023-04-24T04:27:05.685Z,11.50
2023-04-24T04:28:07.267Z,7.25
2023-04-24T04:29:11.198Z,13.00
2023-04-24T04:30:13.425Z,14.00
2023-04-24T04:31:16.042Z,12.00
2023-04-24T04:32:17.719Z,14.00
2023-04-24T04:33:20.132Z,11.75
2023-04-24T04:34:21.559Z,13.00
2023-04-24T04:35:24.084Z,12.00
2023-04-24T04:36:25.893Z,12.00
2023-04-24T04:37:29.597Z,12.50
2023-04-24T04:38:31.170Z,12.50
2023-04-24T04:39:33.586Z,12.00
2023-04-24T04:40:34.982Z,13.25
2023-04-24T04:41:38.794Z,14.50
2023-04-24T04:42:41.362Z,12.25
2023-04-24T04:43:43.874Z,10.25
2023-04-24T04:44:47.166Z,14.50
2023-04-24T04:45:49.703Z,11.25
2023-04-24T04:46:53.933Z,14.25
2023-04-24T04:47:56.695Z,15.00
2023-04-24T04:48:58.372Z,12.00
2023-04-24T04:50:00.758Z,12.25
2023-04-24T04:51:02.176Z,12.75
2023-04-24T04:52:04.674Z,14.50
2023-04-24T04:53:06.672Z,14.50
2023-04-24T04:54:09.071Z,14.25
2023-04-24T04:55:10.508Z,12.00
2023-04-24T04:56:12.899Z,13.75
2023-04-24T04:57:14.541Z,15.00
2023-04-24T04:58:16.960Z,15.75
2023-04-24T04:59:18.374Z,15.50
2023-04-24T05:00:22.182Z,13.50
2023-04-24T05:01:24.148Z,11.75
2023-04-24T05:02:26.718Z,12.00
2023-04-24T05:03:28.380Z,13.50
2023-04-24T05:04:31.186Z,12.00
2023-04-24T05:05:32.783Z,11.75
2023-04-24T05:06:35.171Z,10.25
2023-04-24T05:07:36.641Z,12.75
2023-04-24T05:08:39.052Z,14.00
2023-04-24T05:09:40.519Z,14.75
2023-04-24T05:10:42.980Z,12.25
2023-04-24T05:11:44.388Z,13.00
2023-04-24T05:12:46.820Z,13.00
2023-04-24T05:13:48.244Z,13.75
2023-04-24T05:14:50.798Z,14.25
2023-04-24T05:15:53.587Z,12.50
2023-04-24T05:16:56.017Z,12.75
2023-04-24T05:17:58.160Z,13.75
2023-04-24T05:19:00.966Z,12.00
2023-04-24T05:20:02.562Z,11.25
2023-04-24T05:21:04.988Z,10.00
2023-04-24T05:22:07.767Z,15.00
2023-04-24T05:23:10.248Z,11.25
2023-04-24T05:24:12.681Z,15.75
2023-04-24T05:25:14.088Z,12.25
2023-04-24T05:26:16.509Z,12.75
2023-04-24T05:27:18.256Z,12.75
2023-04-24T05:28:20.803Z,14.50
2023-04-24T05:29:23.208Z,15.50
2023-04-24T05:30:24.719Z,13.50
2023-04-24T05:31:28.532Z,14.50
2023-04-24T05:32:30.092Z,12.00
2023-04-24T05:33:32.781Z,13.75
2023-04-24T05:34:34.479Z,13.00
2023-04-24T05:35:37.059Z,14.25
2023-04-24T05:36:38.752Z,13.75
2023-04-24T05:37:41.139Z,14.25
2023-04-24T05:38:42.715Z,13.25
2023-04-24T05:39:45.379Z,13.50
2023-04-24T05:40:46.844Z,14.50
2023-04-24T05:41:49.287Z,15.00
2023-04-24T05:42:51.753Z,12.50
2023-04-24T05:43:53.236Z,14.75
2023-04-24T05:44:57.939Z,12.25
2023-04-24T05:45:59.641Z,16.50
2023-04-24T05:47:03.407Z,14.75
2023-04-24T05:48:04.993Z,15.00
2023-04-24T05:49:07.453Z,13.75
2023-04-24T05:50:10.231Z,14.25
2023-04-24T05:51:12.660Z,16.50
2023-04-24T05:52:15.071Z,14.75
2023-04-24T05:53:16.498Z,12.00
2023-04-24T05:54:18.944Z,15.00
2023-04-24T05:55:20.368Z,10.50
2023-04-24T05:56:22.851Z,14.00
2023-04-24T05:57:25.541Z,16.25
2023-04-24T05:58:27.119Z,12.00
2023-04-24T05:59:29.686Z,12.50
2023-04-24T06:00:31.150Z,12.00
2023-04-24T06:01:33.835Z,14.25
2023-04-24T06:02:37.993Z,12.00
2023-04-24T06:03:40.370Z,12.00
2023-04-24T06:04:43.237Z,14.75
2023-04-24T06:05:44.723Z,11.75
2023-04-24T06:06:47.183Z,12.00
2023-04-24T06:07:48.979Z,13.25
2023-04-24T06:08:51.369Z,14.25
2023-04-24T06:09:53.095Z,15.00
2023-04-24T06:10:55.478Z,15.50
2023-04-24T06:11:57.550Z,11.75
2023-04-24T06:13:01.382Z,11.75
2023-04-24T06:14:02.970Z,13.25
2023-04-24T06:15:06.026Z,13.25
2023-04-24T06:16:07.673Z,14.75
2023-04-24T06:17:10.179Z,11.50
2023-04-24T06:18:13.930Z,11.75
2023-04-24T06:19:15.350Z,15.25
2023-04-24T06:20:18.177Z,15.00
2023-04-24T06:21:19.654Z,11.50
2023-04-24T06:22:22.058Z,13.75
2023-04-24T06:23:24.562Z,14.00
2023-04-24T06:24:28.155Z,10.75
2023-04-24T06:25:30.668Z,12.00
2023-04-24T06:26:32.085Z,17.00
2023-04-24T06:27:34.473Z,13.00
2023-04-24T06:28:37.112Z,11.75
2023-04-24T06:29:38.540Z,14.50
2023-04-24T06:30:42.121Z,12.75
2023-04-24T06:31:43.593Z,11.50
2023-04-24T06:32:46.027Z,13.00
2023-04-24T06:33:48.816Z,16.00
2023-04-24T06:34:51.390Z,12.75
2023-04-24T06:35:52.912Z,13.75
2023-04-24T06:36:55.881Z,14.00
2023-04-24T06:37:58.291Z,15.75
2023-04-24T06:38:59.707Z,14.25
2023-04-24T06:40:02.106Z,14.50
2023-04-24T06:41:04.450Z,16.00
2023-04-24T06:42:06.892Z,17.25
2023-04-24T06:43:09.271Z,17.75
2023-04-24T06:44:11.680Z,15.50
2023-04-24T06:45:13.091Z,16.00
2023-04-24T06:46:15.602Z,15.25
2023-04-24T06:47:17.069Z,18.00
2023-04-24T06:48:19.528Z,13.50
2023-04-24T06:49:22.322Z,14.25
2023-04-24T06:50:24.737Z,19.50
2023-04-24T06:51:26.795Z,21.75
2023-04-24T06:52:29.253Z,14.00
2023-04-24T06:53:30.713Z,16.00
2023-04-24T06:54:33.225Z,15.25
2023-04-24T06:55:34.713Z,15.75
2023-04-24T06:56:37.130Z,17.00
2023-04-24T06:57:38.723Z,14.50
2023-04-24T06:58:41.406Z,16.25
2023-04-24T06:59:43.085Z,14.75
2023-04-24T07:00:46.588Z,15.75
2023-04-24T07:01:49.124Z,13.75
2023-04-24T07:02:51.739Z,13.25
2023-04-24T07:03:53.435Z,15.50
2023-04-24T07:04:58.282Z,14.50
2023-04-24T07:05:59.700Z,14.25
2023-04-24T07:07:02.138Z,14.00
2023-04-24T07:08:04.083Z,17.75
2023-04-24T07:09:06.535Z,14.50
2023-04-24T07:10:09.509Z,14.75
2023-04-24T07:11:11.909Z,18.50
2023-04-24T07:12:13.424Z,14.50
2023-04-24T07:13:15.838Z,17.25
2023-04-24T07:14:17.344Z,17.25
2023-04-24T07:15:19.896Z,19.25
2023-04-24T07:16:22.428Z,16.00
2023-04-24T07:17:24.906Z,16.00
2023-04-24T07:18:27.347Z,16.50
2023-04-24T07:19:28.771Z,17.75
2023-04-24T07:20:32.672Z,15.50
2023-04-24T07:21:34.106Z,16.75
2023-04-24T07:22:36.581Z,15.75
2023-04-24T07:23:39.001Z,18.50
2023-04-24T07:24:41.382Z,20.50
2023-04-24T07:25:42.821Z,15.25
2023-04-24T07:26:45.234Z,17.25
2023-04-24T07:27:47.011Z,19.75
2023-04-24T07:28:49.619Z,15.00
2023-04-24T07:29:51.085Z,18.75
2023-04-24T07:30:55.109Z,20.00
2023-04-24T07:31:57.859Z,17.75
2023-04-24T07:32:59.532Z,16.50
2023-04-24T07:34:02.080Z,17.00
2023-04-24T07:35:03.843Z,16.00
2023-04-24T07:36:07.800Z,21.50
2023-04-24T07:37:09.230Z,20.50
2023-04-24T07:38:12.344Z,18.75
2023-04-24T07:39:14.900Z,17.50
2023-04-24T07:40:18.305Z,15.00
2023-04-24T07:41:19.893Z,23.75
2023-04-24T07:42:22.310Z,19.50
2023-04-24T07:43:24.648Z,20.50
2023-04-24T07:44:27.133Z,20.50
2023-04-24T07:45:29.245Z,21.75
2023-04-24T07:46:31.889Z,17.75
2023-04-24T07:47:33.432Z,16.00
2023-04-24T07:48:36.041Z,16.25
2023-04-24T07:49:38.448Z,14.75
2023-04-24T07:50:40.890Z,19.25
2023-04-24T07:51:43.828Z,18.00
2023-04-24T07:52:46.306Z,15.75
2023-04-24T07:53:48.047Z,20.25
2023-04-24T07:54:50.849Z,21.00
2023-04-24T07:55:52.332Z,18.75
2023-04-24T07:56:54.769Z,17.00
2023-04-24T07:57:56.194Z,15.75
2023-04-24T07:58:58.619Z,18.00
2023-04-24T08:00:00.069Z,16.00
2023-04-24T08:01:02.736Z,17.00
2023-04-24T08:02:05.463Z,15.00
2023-04-24T08:03:08.192Z,18.50
2023-04-24T08:04:09.939Z,14.50
2023-04-24T08:05:12.686Z,14.00
2023-04-24T08:06:15.178Z,19.50
2023-04-24T08:07:18.003Z,14.00
2023-04-24T08:08:21.904Z,17.00
2023-04-24T08:09:25.848Z,17.00
2023-04-24T08:10:29.498Z,17.00
2023-04-24T08:11:30.963Z,15.00
2023-04-24T08:12:33.440Z,16.00
2023-04-24T08:13:34.928Z,16.25
2023-04-24T08:14:37.347Z,17.00
2023-04-24T08:15:38.778Z,19.00
2023-04-24T08:16:41.299Z,20.50
2023-04-24T08:17:42.780Z,15.00
2023-04-24T08:18:45.344Z,17.75
2023-04-24T08:19:49.231Z,15.75
2023-04-24T08:20:51.766Z,14.50
2023-04-24T08:21:53.355Z,16.50
2023-04-24T08:22:57.436Z,15.50
2023-04-24T08:23:59.994Z,15.50
2023-04-24T08:25:02.637Z,11.00
2023-04-24T08:26:05.215Z,14.75
2023-04-24T08:27:06.676Z,12.50
2023-04-24T08:28:09.428Z,13.50
2023-04-24T08:29:11.976Z,13.75
2023-04-24T08:30:13.484Z,14.25
2023-04-24T08:31:15.914Z,12.00
2023-04-24T08:32:17.878Z,17.75
2023-04-24T08:33:20.326Z,14.50
2023-04-24T08:34:21.876Z,15.25
2023-04-24T08:35:24.362Z,9.50
2023-04-24T08:36:33.145Z,15.50
2023-04-24T08:37:46.180Z,13.00
2023-04-24T08:38:49.989Z,9.00
2023-04-24T08:39:52.413Z,14.25
2023-04-24T08:40:53.853Z,15.25
2023-04-24T08:41:57.005Z,11.00
2023-04-24T08:42:58.500Z,14.50
2023-04-24T08:44:00.921Z,14.25
2023-04-24T08:45:03.451Z,12.75
2023-04-24T08:46:10.915Z,9.00
2023-04-24T08:47:16.250Z,11.25
2023-04-24T08:48:29.693Z,11.25
2023-04-24T08:49:33.292Z,13.00
2023-04-24T08:50:34.864Z,12.00
2023-04-24T08:51:38.450Z,8.25
2023-04-24T08:52:40.051Z,11.00
2023-04-24T08:53:42.447Z,11.00
2023-04-24T08:54:46.527Z,11.00
2023-04-24T08:55:49.184Z,11.00
2023-04-24T08:56:52.173Z,14.00
2023-04-24T08:57:53.791Z,10.50
2023-04-24T08:58:56.248Z,9.00
2023-04-24T08:59:57.733Z,11.25
2023-04-24T09:01:00.374Z,11.00
2023-04-24T09:02:02.025Z,8.75
2023-04-24T09:03:05.030Z,8.00
2023-04-24T09:04:06.957Z,12.75
2023-04-24T09:05:10.386Z,10.00
2023-04-24T09:06:13.494Z,12.75
2023-04-24T09:07:15.955Z,11.00
2023-04-24T09:08:18.803Z,11.50
2023-04-24T09:09:21.564Z,11.00
2023-04-24T09:10:25.876Z,7.75
2023-04-24T09:11:27.377Z,11.00
2023-04-24T09:12:32.778Z,7.75
2023-04-24T09:13:35.400Z,9.00
2023-04-24T09:14:38.021Z,10.75
2023-04-24T09:15:40.471Z,12.25
2023-04-24T09:16:42.972Z,7.50
2023-04-24T09:17:45.922Z,8.25
2023-04-24T09:18:47.390Z,6.50
2023-04-24T09:19:50.158Z,6.00
2023-04-24T09:21:02.928Z,7.50
2023-04-24T09:22:07.341Z,6.50
2023-04-24T09:23:11.654Z,5.50
2023-04-24T09:24:18.780Z,6.00
2023-04-24T09:25:21.440Z,4.00
2023-04-24T09:26:24.769Z,3.00
2023-04-24T09:27:27.154Z,3.00
2023-04-24T09:28:30.800Z,2.00
2023-04-24T09:29:33.889Z,3.00
2023-04-24T09:30:36.671Z,3.75
2023-04-24T09:31:38.326Z,1.50
2023-04-24T09:32:40.831Z,1.00
2023-04-24T09:33:44.320Z,2.50
2023-04-24T09:34:46.874Z,1.00
2023-04-24T09:35:50.154Z,1.50
2023-04-24T09:36:52.709Z,1.50
2023-04-24T09:37:55.332Z,1.00
2023-04-24T09:38:59.746Z,1.00
2023-04-24T09:40:13.411Z,1.00
2023-04-24T09:41:16.117Z,1.00
2023-04-24T09:42:19.880Z,2.00
2023-04-24T09:43:22.277Z,2.00
2023-04-24T09:44:25.113Z,1.00
2023-04-24T09:45:28.304Z,1.00
2023-04-24T09:46:34.145Z,3.00
2023-04-24T09:47:36.870Z,1.00
2023-04-24T09:48:40.080Z,1.00
2023-04-24T09:49:45.404Z,1.00
2023-04-24T09:50:48.215Z,1.00
2023-04-24T09:51:50.654Z,1.00
2023-04-24T09:52:57.780Z,1.00
2023-04-24T09:54:00.491Z,1.00
2023-04-24T09:55:03.125Z,1.00
2023-04-24T09:56:07.449Z,1.00
2023-04-24T09:57:08.959Z,1.00
2023-04-24T09:58:13.637Z,1.00
2023-04-24T09:59:15.073Z,1.00
2023-04-24T10:00:20.043Z,1.00
2023-04-24T10:01:31.792Z,1.00
2023-04-24T10:02:33.654Z,1.50
2023-04-24T10:03:36.350Z,1.00
2023-04-24T10:04:37.885Z,1.00
2023-04-24T10:05:40.730Z,1.00
2023-04-24T10:06:43.022Z,1.00
2023-04-24T10:07:47.040Z,1.00
2023-04-24T10:08:52.454Z,3.00
2023-04-24T10:09:54.790Z,1.00
2023-04-24T10:10:58.145Z,1.00
2023-04-24T10:12:03.110Z,1.50
2023-04-24T10:13:05.792Z,3.00
2023-04-24T10:14:09.726Z,1.00
2023-04-24T10:15:11.470Z,2.50
2023-04-24T10:16:14.284Z,1.00
2023-04-24T10:17:22.169Z,2.50
2023-04-24T10:18:24.872Z,1.00
2023-04-24T10:19:27.539Z,3.00
2023-04-24T10:20:31.527Z,1.00
2023-04-24T10:21:34.072Z,1.50
2023-04-24T10:22:35.495Z,3.00
2023-04-24T10:23:38.017Z,2.00
2023-04-24T10:24:40.484Z,3.00
2023-04-24T10:25:43.100Z,3.00
2023-04-24T10:26:46.383Z,3.00
2023-04-24T10:27:48.376Z,3.00
2023-04-24T10:28:51.625Z,3.00
2023-04-24T10:29:54.728Z,3.00
2023-04-24T10:30:57.653Z,1.00
2023-04-24T10:32:00.400Z,5.00
2023-04-24T10:33:02.338Z,3.00
2023-04-24T10:34:05.879Z,1.00
2023-04-24T10:35:07.665Z,5.00
2023-04-24T10:36:10.575Z,3.00
2023-04-24T10:37:12.118Z,3.00
2023-04-24T10:38:15.099Z,5.00
2023-04-24T10:39:17.791Z,5.00
2023-04-24T10:40:20.540Z,5.00
2023-04-24T10:41:24.184Z,5.00
2023-04-24T10:42:26.703Z,3.00
2023-04-24T10:43:28.306Z,5.50
2023-04-24T10:44:37.857Z,5.00
2023-04-24T10:45:42.245Z,4.50
2023-04-24T10:46:44.601Z,4.50
2023-04-24T10:47:52.900Z,3.50
2023-04-24T10:48:56.392Z,6.00
2023-04-24T10:50:00.581Z,3.00
2023-04-24T10:51:03.325Z,5.00
2023-04-24T10:52:06.657Z,3.50
2023-04-24T10:53:10.277Z,3.00
2023-04-24T10:54:22.718Z,5.00
2023-04-24T10:55:45.348Z,5.75
2023-04-24T10:56:48.299Z,5.00
2023-04-24T10:58:03.425Z,4.00
2023-04-24T10:59:06.067Z,5.00
2023-04-24T11:00:17.429Z,3.00
2023-04-24T11:01:28.397Z,4.50
2023-04-24T11:02:36.947Z,5.00
2023-04-24T11:03:42.855Z,4.00
2023-04-24T11:04:44.650Z,5.75
2023-04-24T11:05:54.397Z,5.00
2023-04-24T11:06:56.948Z,3.00
2023-04-24T11:08:13.846Z,5.25
2023-04-24T11:09:17.409Z,5.00
2023-04-24T11:10:26.058Z,5.50
2023-04-24T11:11:30.304Z,6.25
2023-04-24T11:12:32.650Z,6.00
2023-04-24T11:13:53.857Z,6.00
2023-04-24T11:15:03.761Z,6.00
2023-04-24T11:16:13.445Z,4.50
2023-04-24T11:17:28.823Z,6.00
2023-04-24T11:18:37.803Z,5.00
2023-04-24T11:19:41.595Z,6.00
2023-04-24T11:20:43.504Z,7.50
2023-04-24T11:21:46.747Z,9.50
2023-04-24T11:22:49.183Z,9.75
2023-04-24T11:23:51.638Z,5.00
2023-04-24T11:24:55.369Z,8.00
2023-04-24T11:26:10.686Z,9.75
2023-04-24T11:27:14.827Z,9.25
2023-04-24T11:28:17.298Z,9.75
2023-04-24T11:29:21.538Z,8.00
2023-04-24T11:30:24.991Z,9.75
2023-04-24T11:31:36.564Z,8.25
2023-04-24T11:32:40.972Z,8.00
2023-04-24T11:33:42.484Z,11.00
2023-04-24T11:34:46.958Z,9.00
2023-04-24T11:35:49.973Z,8.50
2023-04-24T11:36:51.585Z,13.00
2023-04-24T11:38:18.795Z,11.00
2023-04-24T11:39:17.158Z,10.00
2023-04-24T11:40:21.115Z,10.75
2023-04-24T11:41:22.782Z,9.50
2023-04-24T11:42:26.368Z,11.00
2023-04-24T11:43:29.008Z,13.50
2023-04-24T11:44:32.915Z,12.00
2023-04-24T11:45:35.880Z,12.00
2023-04-24T11:46:38.950Z,11.00
2023-04-24T11:47:43.183Z,14.75
2023-04-24T11:48:46.246Z,9.50
2023-04-24T11:49:48.643Z,13.50
2023-04-24T11:50:50.867Z,15.00
2023-04-24T11:51:59.730Z,12.50
2023-04-24T11:53:03.476Z,12.00
2023-04-24T11:54:09.484Z,11.50
2023-04-24T11:55:25.236Z,10.75
2023-04-24T11:56:27.690Z,13.00
2023-04-24T11:57:34.520Z,11.00
2023-04-24T11:58:36.023Z,14.50
2023-04-24T11:59:39.250Z,11.00
2023-04-24T12:00:41.776Z,13.50
2023-04-24T12:01:43.852Z,14.50
2023-04-24T12:02:47.771Z,9.50
2023-04-24T12:03:52.177Z,12.75
2023-04-24T12:04:55.627Z,14.50
2023-04-24T12:06:06.103Z,15.00
2023-04-24T12:07:09.540Z,12.75
2023-04-24T12:08:11.940Z,14.00
2023-04-24T12:09:18.274Z,13.75
2023-04-24T12:10:21.982Z,14.00
2023-04-24T12:11:23.633Z,16.25
2023-04-24T12:12:27.049Z,16.00
2023-04-24T12:13:29.496Z,16.00
2023-04-24T12:14:32.175Z,14.25
2023-04-24T12:15:34.737Z,15.00
2023-04-24T12:16:36.521Z,13.00
2023-04-24T12:17:39.168Z,12.75
2023-04-24T12:18:45.490Z,14.25
2023-04-24T12:19:48.404Z,13.00
2023-04-24T12:20:51.006Z,14.00
2023-04-24T12:22:01.640Z,13.50
2023-04-24T12:23:04.055Z,14.25
2023-04-24T12:24:07.076Z,11.25
2023-04-24T12:25:11.960Z,10.50
2023-04-24T12:26:14.699Z,13.00
2023-04-24T12:27:20.613Z,9.50
2023-04-24T12:28:23.172Z,10.50
2023-04-24T12:29:24.867Z,15.50
2023-04-24T12:30:29.221Z,10.75
2023-04-24T12:31:31.220Z,8.75
2023-04-24T12:32:34.020Z,11.00
2023-04-24T12:33:36.932Z,10.00
2023-04-24T12:34:40.095Z,8.25
2023-04-24T12:35:42.793Z,9.00
2023-04-24T12:36:45.329Z,8.25
2023-04-24T12:37:47.940Z,11.75
2023-04-24T12:38:54.478Z,10.50
2023-04-24T12:39:59.902Z,7.50
2023-04-24T12:41:05.879Z,5.00
2023-04-24T12:42:08.776Z,8.00
2023-04-24T12:43:16.639Z,8.75
2023-04-24T12:44:19.593Z,8.00
2023-04-24T12:45:24.531Z,7.75
2023-04-24T12:46:27.372Z,9.00
2023-04-24T12:47:29.023Z,8.25
2023-04-24T12:48:31.899Z,13.00
2023-04-24T12:49:33.868Z,11.00
2023-04-24T12:50:37.806Z,7.75
2023-04-24T12:51:39.232Z,9.00
2023-04-24T12:52:41.718Z,11.00
2023-04-24T12:53:43.451Z,11.50
2023-04-24T12:54:46.199Z,10.50
2023-04-24T12:55:53.972Z,15.50
2023-04-24T12:56:55.479Z,10.00
2023-04-24T12:57:58.234Z,9.50
2023-04-24T12:59:00.044Z,10.75
2023-04-24T13:00:02.691Z,11.25
2023-04-24T13:01:05.199Z,11.00
2023-04-24T13:02:07.264Z,13.50
2023-04-24T13:03:09.830Z,9.00
2023-04-24T13:04:12.111Z,15.50
2023-04-24T13:05:15.064Z,10.50
2023-04-24T13:06:18.331Z,11.50
2023-04-24T13:07:20.841Z,11.00
2023-04-24T13:08:23.321Z,9.50
2023-04-24T13:09:25.093Z,11.25
2023-04-24T13:10:27.644Z,12.00
2023-04-24T13:11:29.138Z,9.50
2023-04-24T13:12:31.852Z,11.50
2023-04-24T13:13:33.293Z,12.00
2023-04-24T13:14:36.142Z,13.50
2023-04-24T13:15:38.570Z,14.50
2023-04-24T13:16:40.874Z,11.50
2023-04-24T13:17:46.476Z,12.25
2023-04-24T13:18:48.008Z,12.75
2023-04-24T13:19:51.895Z,14.00
2023-04-24T13:20:53.356Z,10.50
2023-04-24T13:21:58.412Z,11.25
2023-04-24T13:23:01.168Z,12.00
2023-04-24T13:24:02.752Z,12.75
2023-04-24T13:25:06.936Z,13.75
2023-04-24T13:26:08.595Z,11.00
2023-04-24T13:27:11.250Z,13.50
2023-04-24T13:28:12.918Z,13.50
2023-04-24T13:29:15.977Z,14.25
2023-04-24T13:30:17.855Z,11.00
2023-04-24T13:31:20.399Z,15.50
2023-04-24T13:32:23.377Z,14.50
2023-04-24T13:33:25.051Z,17.00
2023-04-24T13:34:27.692Z,15.25
2023-04-24T13:35:32.302Z,14.75
2023-04-24T13:36:34.130Z,14.25
2023-04-24T13:37:38.139Z,14.00
2023-04-24T13:38:40.871Z,15.00
2023-04-24T13:39:42.661Z,12.50
2023-04-24T13:40:45.989Z,11.00
2023-04-24T13:41:52.001Z,14.25
2023-04-24T13:42:54.798Z,18.75
2023-04-24T13:43:56.602Z,13.75